createdAt,value
2018-07-04T00:02:26.915Z,17.80
2018-07-04T00:05:06.654Z,17.80
2018-07-04T00:07:46.287Z,17.70
2018-07-04T00:10:25.989Z,17.60
2018-07-04T00:13:05.647Z,17.50
2018-07-04T00:15:45.465Z,17.40
2018-07-04T00:18:25.216Z,17.30
2018-07-04T00:21:04.874Z,17.40
2018-07-04T00:23:44.743Z,17.40
2018-07-04T00:26:24.595Z,17.30
2018-07-04T00:29:04.456Z,17.20
2018-07-04T00:31:44.246Z,17.20
2018-07-04T00:34:23.898Z,17.10
2018-07-04T00:37:03.582Z,17.10
2018-07-04T00:39:43.415Z,16.90
2018-07-04T00:42:23.064Z,16.00
2018-07-04T00:45:02.761Z,16.70
2018-07-04T00:47:42.407Z,16.70
2018-07-04T00:50:22.055Z,16.70
2018-07-04T00:53:01.614Z,16.70
2018-07-04T00:55:41.345Z,16.50
2018-07-04T00:58:20.989Z,16.40
2018-07-04T01:01:00.616Z,16.40
2018-07-04T01:03:40.686Z,16.30
2018-07-04T01:06:20.338Z,16.30
2018-07-04T01:09:00.064Z,16.30
2018-07-04T01:11:39.939Z,16.20
2018-07-04T01:14:19.636Z,16.30
2018-07-04T01:16:59.171Z,16.20
2018-07-04T01:19:38.845Z,16.20
2018-07-04T01:22:18.659Z,16.10
2018-07-04T01:24:58.387Z,16.20
2018-07-04T01:27:38.083Z,16.10
2018-07-04T01:32:51.465Z,16.00
2018-07-04T01:35:31.187Z,16.00
2018-07-04T01:38:11.125Z,16.00
2018-07-04T01:40:50.945Z,16.00
2018-07-04T01:43:30.670Z,16.00
2018-07-04T01:46:10.554Z,15.90
2018-07-04T01:48:50.310Z,15.90
2018-07-04T01:51:30.210Z,15.90
2018-07-04T01:54:09.899Z,15.80
2018-07-04T01:56:49.599Z,15.70
2018-07-04T01:59:29.495Z,15.80
2018-07-04T02:02:09.355Z,15.70
2018-07-04T02:04:49.254Z,15.70
2018-07-04T02:07:28.978Z,15.70
2018-07-04T02:10:08.703Z,15.60
2018-07-04T02:12:48.628Z,15.60
2018-07-04T02:15:28.387Z,15.60
2018-07-04T02:18:08.202Z,15.60
2018-07-04T02:20:48.240Z,15.70
2018-07-04T02:23:28.217Z,15.50
2018-07-04T02:26:08.063Z,15.50
2018-07-04T02:28:47.727Z,15.40
2018-07-04T02:31:27.575Z,15.50
2018-07-04T02:34:07.384Z,15.40
2018-07-04T02:39:21.058Z,15.30
2018-07-04T02:42:00.808Z,15.30
2018-07-04T02:44:40.566Z,15.20
2018-07-04T02:47:25.570Z,15.30
2018-07-04T02:50:05.446Z,15.30
2018-07-04T02:52:45.275Z,15.30
2018-07-04T02:55:25.127Z,15.20
2018-07-04T02:58:05.591Z,15.20
2018-07-04T03:00:45.679Z,15.20
2018-07-04T03:03:25.447Z,15.10
2018-07-04T03:06:05.235Z,15.20
2018-07-04T03:08:45.127Z,15.20
2018-07-04T03:11:24.898Z,15.20
2018-07-04T03:14:04.671Z,15.20
2018-07-04T03:16:44.314Z,15.10
2018-07-04T03:19:24.168Z,15.00
2018-07-04T03:22:03.951Z,15.10
2018-07-04T03:24:43.614Z,15.10
2018-07-04T03:27:23.399Z,15.20
2018-07-04T03:32:36.923Z,15.20
2018-07-04T03:35:16.859Z,15.20
2018-07-04T03:37:56.586Z,15.20
2018-07-04T03:40:36.374Z,15.20
2018-07-04T03:43:16.304Z,15.20
2018-07-04T03:45:55.961Z,15.10
2018-07-04T03:51:09.641Z,15.20
2018-07-04T03:53:49.604Z,15.20
2018-07-04T03:56:29.404Z,15.20
2018-07-04T03:59:09.162Z,15.10
2018-07-04T04:01:49.057Z,15.10
2018-07-04T04:04:28.881Z,15.20
2018-07-04T04:07:08.531Z,15.20
2018-07-04T04:09:48.347Z,15.20
2018-07-04T04:12:28.206Z,15.20
2018-07-04T04:15:08.043Z,15.20
2018-07-04T04:17:47.882Z,15.20
2018-07-04T04:20:27.718Z,15.20
2018-07-04T04:23:07.373Z,15.30
2018-07-04T04:25:47.164Z,15.30
2018-07-04T04:28:27.106Z,15.30
2018-07-04T04:31:07.050Z,15.40
2018-07-04T04:33:47.034Z,15.40
2018-07-04T04:36:26.779Z,15.50
2018-07-04T04:39:06.659Z,15.60
2018-07-04T04:44:20.383Z,15.80
2018-07-04T04:46:59.949Z,15.90
2018-07-04T04:49:39.614Z,16.00
2018-07-04T04:52:19.515Z,16.00
2018-07-04T04:54:59.354Z,16.10
2018-07-04T04:57:38.942Z,16.20
2018-07-04T05:00:18.895Z,16.30
2018-07-04T05:02:58.615Z,16.30
2018-07-04T05:05:38.605Z,16.40
2018-07-04T05:08:18.275Z,16.40
2018-07-04T05:10:58.008Z,16.50
2018-07-04T05:13:37.660Z,16.60
2018-07-04T05:16:17.327Z,16.60
2018-07-04T05:18:57.050Z,16.70
2018-07-04T05:21:36.696Z,16.70
2018-07-04T05:24:16.666Z,16.80
2018-07-04T05:26:56.594Z,16.80
2018-07-04T05:29:36.384Z,16.90
2018-07-04T05:32:16.131Z,16.90
2018-07-04T05:34:55.910Z,17.00
2018-07-04T05:37:35.601Z,17.00
2018-07-04T05:40:15.275Z,17.10
2018-07-04T05:42:55.163Z,17.10
2018-07-04T05:45:35.143Z,17.20
2018-07-04T05:48:14.838Z,17.30
2018-07-04T05:50:54.731Z,17.40
2018-07-04T05:53:34.546Z,17.40
2018-07-04T05:56:14.265Z,17.50
2018-07-04T05:58:54.107Z,17.60
2018-07-04T06:01:33.984Z,17.60
2018-07-04T06:04:14.003Z,17.70
2018-07-04T06:06:53.809Z,17.70
2018-07-04T06:09:33.571Z,17.90
2018-07-04T06:12:13.246Z,17.90
2018-07-04T06:14:52.922Z,18.00
2018-07-04T06:17:32.802Z,18.10
2018-07-04T06:20:12.733Z,18.30
2018-07-04T06:22:52.986Z,18.40
2018-07-04T06:25:32.866Z,18.50
2018-07-04T06:28:12.566Z,18.60
2018-07-04T06:30:52.511Z,18.70
2018-07-04T06:33:32.478Z,18.90
2018-07-04T06:36:12.443Z,18.90
2018-07-04T06:38:39.882Z,19.00
2018-07-04T06:41:07.319Z,19.10
2018-07-04T06:43:34.651Z,19.10
2018-07-04T06:46:02.155Z,19.20
2018-07-04T06:48:29.476Z,19.20
2018-07-04T06:50:56.799Z,19.20
2018-07-04T06:53:24.127Z,19.20
2018-07-04T06:55:51.613Z,19.20
2018-07-04T06:58:19.010Z,19.30
2018-07-04T07:00:46.827Z,19.30
2018-07-04T07:03:26.718Z,19.30
2018-07-04T07:06:06.522Z,19.30
2018-07-04T07:08:46.402Z,19.30
2018-07-04T07:11:26.027Z,19.40
2018-07-04T07:16:42.945Z,19.40
2018-07-04T07:19:22.884Z,19.50
2018-07-04T07:22:02.717Z,19.50
2018-07-04T07:24:42.334Z,19.50
2018-07-04T07:27:21.955Z,19.60
2018-07-04T07:30:01.730Z,19.70
2018-07-04T07:32:41.570Z,19.80
2018-07-04T07:35:21.380Z,19.90
2018-07-04T07:38:01.303Z,20.10
2018-07-04T07:40:41.159Z,20.20
2018-07-04T07:43:21.115Z,20.20
2018-07-04T07:46:01.086Z,20.20
2018-07-04T07:48:40.859Z,20.20
2018-07-04T07:51:20.640Z,20.30
2018-07-04T07:54:00.510Z,20.40
2018-07-04T07:56:40.525Z,20.60
2018-07-04T07:59:20.546Z,20.90
2018-07-04T08:04:33.936Z,21.20
2018-07-04T08:07:13.839Z,21.10
2018-07-04T08:09:53.647Z,21.00
2018-07-04T08:12:33.329Z,21.00
2018-07-04T08:15:13.067Z,21.00
2018-07-04T08:17:52.703Z,21.00
2018-07-04T08:20:32.474Z,21.00
2018-07-04T08:23:12.222Z,21.10
2018-07-04T08:25:51.915Z,21.10
2018-07-04T08:28:31.653Z,21.30
2018-07-04T08:31:11.642Z,21.50
2018-07-04T08:33:51.465Z,21.70
2018-07-04T08:36:31.280Z,21.80
2018-07-04T08:39:10.924Z,21.80
2018-07-04T08:41:51.088Z,21.70
2018-07-04T08:44:30.951Z,21.70
2018-07-04T08:47:10.575Z,21.80
2018-07-04T08:49:50.399Z,22.00
2018-07-04T08:52:30.453Z,22.00
2018-07-04T08:55:10.262Z,22.10
2018-07-04T08:57:50.046Z,22.30
2018-07-04T09:00:29.858Z,22.30
2018-07-04T09:03:09.653Z,22.50
2018-07-04T09:05:49.395Z,22.40
2018-07-04T09:08:29.095Z,22.60
2018-07-04T09:11:09.070Z,22.70
2018-07-04T09:13:48.683Z,22.80
2018-07-04T09:16:28.419Z,22.70
2018-07-04T09:19:08.203Z,22.60
2018-07-04T09:21:47.907Z,22.50
2018-07-04T09:24:27.635Z,22.70
2018-07-04T09:27:07.367Z,22.80
2018-07-04T09:29:47.010Z,22.70
2018-07-04T09:32:26.689Z,22.70
2018-07-04T09:35:06.592Z,22.90
2018-07-04T09:37:46.303Z,23.10
2018-07-04T09:40:26.039Z,23.40
2018-07-04T09:43:05.846Z,23.40
2018-07-04T09:45:45.713Z,23.40
2018-07-04T09:48:25.509Z,23.60
2018-07-04T09:51:05.351Z,23.60
2018-07-04T09:53:45.182Z,23.80
2018-07-04T09:56:25.034Z,23.90
2018-07-04T10:01:38.698Z,24.00
2018-07-04T10:04:18.514Z,23.90
2018-07-04T10:06:58.243Z,23.90
2018-07-04T10:09:38.029Z,23.90
2018-07-04T10:12:17.727Z,24.00
2018-07-04T10:14:57.384Z,24.20
2018-07-04T10:17:37.150Z,24.20
2018-07-04T10:20:16.808Z,24.60
2018-07-04T10:22:56.597Z,24.60
2018-07-04T10:25:36.471Z,24.50
2018-07-04T10:28:16.317Z,24.40
2018-07-04T10:30:56.204Z,24.30
2018-07-04T10:33:36.039Z,24.20
2018-07-04T10:36:15.779Z,24.20
2018-07-04T10:38:55.499Z,24.30
2018-07-04T10:41:35.409Z,24.50
2018-07-04T10:44:15.251Z,24.40
2018-07-04T10:46:55.123Z,24.20
2018-07-04T10:49:35.150Z,24.40
2018-07-04T10:52:14.890Z,24.50
2018-07-04T10:54:54.620Z,24.40
2018-07-04T10:57:34.406Z,24.60
2018-07-04T11:00:14.140Z,24.50
2018-07-04T11:02:53.931Z,24.70
2018-07-04T11:05:33.519Z,24.90
2018-07-04T11:08:13.455Z,24.70
2018-07-04T11:10:53.326Z,24.40
2018-07-04T11:13:33.203Z,24.30
2018-07-04T11:16:13.004Z,24.60
2018-07-04T11:18:53.055Z,24.80
2018-07-04T11:21:32.737Z,25.00
2018-07-04T11:24:12.583Z,24.90
2018-07-04T11:26:52.266Z,25.00
2018-07-04T11:29:31.920Z,24.70
2018-07-04T11:32:11.716Z,24.80
2018-07-04T11:34:51.467Z,24.80
2018-07-04T11:37:31.316Z,24.50
2018-07-04T11:40:11.177Z,24.40
2018-07-04T11:42:51.026Z,24.50
2018-07-04T11:45:30.817Z,24.70
2018-07-04T11:47:58.153Z,24.60
2018-07-04T11:50:25.508Z,24.80
2018-07-04T11:52:52.887Z,25.10
2018-07-04T11:55:20.402Z,25.00
2018-07-04T11:57:47.717Z,25.30
2018-07-04T12:00:15.165Z,25.50
2018-07-04T12:02:42.614Z,25.60
2018-07-04T12:05:22.590Z,25.50
2018-07-04T12:07:50.129Z,25.70
2018-07-04T12:10:17.462Z,25.70
2018-07-04T12:12:44.779Z,25.60
2018-07-04T12:15:12.147Z,25.70
2018-07-04T12:17:39.583Z,25.80
2018-07-04T12:20:06.972Z,25.70
2018-07-04T12:22:34.399Z,25.80
2018-07-04T12:25:01.731Z,25.50
2018-07-04T12:27:29.067Z,25.30
2018-07-04T12:29:56.423Z,25.30
2018-07-04T12:32:23.803Z,25.30
2018-07-04T12:34:51.153Z,25.30
2018-07-04T12:37:18.495Z,25.10
2018-07-04T12:39:45.907Z,25.20
2018-07-04T12:42:13.231Z,24.60
2018-07-04T12:44:40.576Z,24.60
2018-07-04T12:47:07.925Z,24.30
2018-07-04T12:49:35.287Z,24.70
2018-07-04T12:52:02.615Z,24.80
2018-07-04T12:54:35.291Z,25.00
2018-07-04T12:57:15.120Z,24.90
2018-07-04T12:59:55.143Z,25.00
2018-07-04T13:02:35.139Z,24.80
2018-07-04T13:05:14.799Z,25.20
2018-07-04T13:07:54.442Z,25.80
2018-07-04T13:10:34.219Z,26.10
2018-07-04T13:13:14.137Z,26.40
2018-07-04T13:15:54.019Z,26.60
2018-07-04T13:18:34.113Z,26.20
2018-07-04T13:21:13.698Z,26.20
2018-07-04T13:23:53.471Z,25.80
2018-07-04T13:26:33.160Z,25.70
2018-07-04T13:29:13.023Z,25.70
2018-07-04T13:31:52.715Z,25.70
2018-07-04T13:34:32.518Z,25.50
2018-07-04T13:37:12.359Z,25.90
2018-07-04T13:39:52.327Z,26.00
2018-07-04T13:42:32.188Z,25.90
2018-07-04T13:45:12.678Z,25.40
2018-07-04T13:47:52.458Z,25.50
2018-07-04T13:50:32.137Z,25.70
2018-07-04T13:53:11.986Z,25.80
2018-07-04T13:55:52.005Z,25.90
2018-07-04T13:58:31.795Z,25.80
2018-07-04T14:01:11.451Z,25.20
2018-07-04T14:03:51.350Z,25.20
2018-07-04T14:06:31.035Z,25.20
2018-07-04T14:09:10.700Z,25.00
2018-07-04T14:11:50.537Z,25.10
2018-07-04T14:14:30.142Z,25.10
2018-07-04T14:17:09.893Z,24.70
2018-07-04T14:19:49.790Z,24.70
2018-07-04T14:22:29.703Z,24.80
2018-07-04T14:25:09.455Z,24.90
2018-07-04T14:27:49.327Z,24.80
2018-07-04T14:30:29.071Z,24.50
2018-07-04T14:33:08.676Z,24.40
2018-07-04T14:35:48.434Z,24.00
2018-07-04T14:38:28.383Z,24.00
2018-07-04T14:41:08.182Z,24.30
2018-07-04T14:43:48.079Z,24.60
2018-07-04T14:46:27.954Z,24.80
2018-07-04T14:49:07.744Z,25.20
2018-07-04T14:51:47.523Z,25.50
2018-07-04T14:54:27.254Z,25.80
2018-07-04T14:59:40.997Z,25.90
2018-07-04T15:07:28.469Z,26.20
2018-07-04T15:12:42.326Z,26.40
2018-07-04T15:15:22.127Z,26.40
2018-07-04T15:18:01.972Z,26.30
2018-07-04T15:20:41.800Z,26.50
2018-07-04T15:23:21.744Z,26.40
2018-07-04T15:26:01.576Z,26.50
2018-07-04T15:28:41.372Z,26.50
2018-07-04T15:31:21.344Z,26.40
2018-07-04T15:36:35.021Z,26.20
2018-07-04T15:39:14.780Z,26.10
2018-07-04T15:41:54.491Z,25.90
2018-07-04T15:44:34.107Z,25.90
2018-07-04T15:47:13.814Z,25.80
2018-07-04T15:49:53.528Z,25.70
2018-07-04T15:52:33.306Z,25.60
2018-07-04T15:55:13.199Z,25.50
2018-07-04T15:57:52.898Z,25.50
2018-07-04T16:00:32.607Z,25.40
2018-07-04T16:03:12.497Z,25.30
2018-07-04T16:05:52.432Z,25.30
2018-07-04T16:08:32.716Z,25.20
2018-07-04T16:11:12.536Z,25.10
2018-07-04T16:13:52.711Z,25.10
2018-07-04T16:16:32.539Z,25.10
2018-07-04T16:19:12.411Z,25.10
2018-07-04T16:21:52.131Z,25.10
2018-07-04T16:24:31.703Z,25.10
2018-07-04T16:27:11.345Z,25.20
2018-07-04T16:29:51.093Z,25.20
2018-07-04T16:32:30.761Z,25.30
2018-07-04T16:35:10.544Z,25.30
2018-07-04T16:37:50.379Z,25.30
2018-07-04T16:40:30.279Z,25.30
2018-07-04T16:45:43.971Z,25.20
2018-07-04T16:48:23.656Z,25.20
2018-07-04T16:51:03.302Z,25.20
2018-07-04T16:53:43.163Z,25.20
2018-07-04T16:56:23.318Z,25.20
2018-07-04T16:59:03.093Z,25.20
2018-07-04T17:01:42.768Z,25.20
2018-07-04T17:04:22.503Z,25.30
2018-07-04T17:07:02.499Z,25.30
2018-07-04T17:12:16.066Z,25.30
2018-07-04T17:14:55.875Z,25.30
2018-07-04T17:17:35.554Z,25.20
2018-07-04T17:20:15.405Z,25.20
2018-07-04T17:22:55.106Z,25.20
2018-07-04T17:25:34.845Z,25.20
2018-07-04T17:28:14.637Z,25.20
2018-07-04T17:30:54.522Z,25.20
2018-07-04T17:33:34.679Z,25.20
2018-07-04T17:36:14.767Z,25.30
2018-07-04T17:38:54.487Z,25.20
2018-07-04T17:41:34.706Z,25.20
2018-07-04T17:44:14.390Z,25.20
2018-07-04T17:46:54.175Z,25.00
2018-07-04T17:49:34.166Z,25.00
2018-07-04T17:52:14.110Z,25.00
2018-07-04T17:54:53.952Z,25.00
2018-07-04T17:57:33.711Z,24.90
2018-07-04T18:00:13.679Z,24.80
2018-07-04T18:02:53.690Z,24.70
2018-07-04T18:05:33.598Z,24.80
2018-07-04T18:08:13.555Z,24.80
2018-07-04T18:10:53.363Z,24.80
2018-07-04T18:13:33.115Z,24.70
2018-07-04T18:16:12.891Z,24.80
2018-07-04T18:18:52.536Z,24.90
2018-07-04T18:21:32.103Z,25.00
2018-07-04T18:24:11.675Z,25.00
2018-07-04T18:26:51.423Z,24.80
2018-07-04T18:29:31.191Z,24.80
2018-07-04T18:32:11.079Z,24.80
2018-07-04T18:34:50.930Z,24.80
2018-07-04T18:37:30.708Z,24.80
2018-07-04T18:40:10.448Z,24.70
2018-07-04T18:42:50.363Z,24.70
2018-07-04T18:45:30.228Z,24.60
2018-07-04T18:48:10.212Z,24.60
2018-07-04T18:50:49.886Z,24.60
2018-07-04T18:53:29.724Z,24.60
2018-07-04T18:58:43.464Z,24.50
2018-07-04T19:01:23.142Z,24.40
2018-07-04T19:04:02.847Z,24.40
2018-07-04T19:06:42.632Z,24.30
2018-07-04T19:09:22.367Z,24.20
2018-07-04T19:12:02.116Z,24.10
2018-07-04T19:14:41.804Z,24.00
2018-07-04T19:17:21.658Z,24.00
2018-07-04T19:20:01.458Z,24.00
2018-07-04T19:22:41.390Z,23.90
2018-07-04T19:25:21.520Z,23.90
2018-07-04T19:28:01.328Z,23.80
2018-07-04T19:30:41.205Z,23.80
2018-07-04T19:33:21.048Z,23.80
2018-07-04T19:36:00.957Z,23.70
2018-07-04T19:38:40.888Z,23.60
2018-07-04T19:41:20.752Z,23.60
2018-07-04T19:44:00.693Z,23.60
2018-07-04T19:46:40.408Z,23.50
2018-07-04T19:49:20.352Z,23.50
2018-07-04T19:52:00.009Z,23.50
2018-07-04T19:54:39.977Z,23.40
2018-07-04T19:57:19.792Z,23.40
2018-07-04T19:59:59.674Z,23.30
2018-07-04T20:02:39.584Z,23.30
2018-07-04T20:05:19.390Z,23.20
2018-07-04T20:07:59.271Z,23.20
2018-07-04T20:10:39.060Z,23.10
2018-07-04T20:13:18.780Z,23.10
2018-07-04T20:15:58.524Z,23.00
2018-07-04T20:18:38.317Z,22.90
2018-07-04T20:21:18.087Z,22.90
2018-07-04T20:23:57.807Z,22.80
2018-07-04T20:26:37.449Z,22.80
2018-07-04T20:29:17.284Z,22.80
2018-07-04T20:31:57.312Z,22.80
2018-07-04T20:34:37.284Z,22.70
2018-07-04T20:37:16.965Z,22.70
2018-07-04T20:39:56.723Z,22.70
2018-07-04T20:42:36.747Z,22.60
2018-07-04T20:45:16.472Z,22.60
2018-07-04T20:47:56.583Z,22.50
2018-07-04T20:50:36.533Z,22.50
2018-07-04T20:53:16.445Z,22.50
2018-07-04T20:55:56.176Z,22.40
2018-07-04T20:58:36.090Z,22.40
2018-07-04T21:01:15.680Z,22.30
2018-07-04T21:03:55.538Z,22.30
2018-07-04T21:06:35.336Z,22.30
2018-07-04T21:09:15.054Z,22.20
2018-07-04T21:11:54.646Z,22.20
2018-07-04T21:14:34.406Z,22.10
2018-07-04T21:17:14.012Z,22.10
2018-07-04T21:19:53.854Z,22.00
2018-07-04T21:22:33.426Z,22.00
2018-07-04T21:25:13.131Z,22.00
2018-07-04T21:27:52.840Z,22.00
2018-07-04T21:30:32.606Z,22.00
2018-07-04T21:33:12.194Z,22.00
2018-07-04T21:35:51.993Z,22.00
2018-07-04T21:38:31.974Z,21.90
2018-07-04T21:41:11.636Z,21.80
2018-07-04T21:43:51.726Z,21.80
2018-07-04T21:46:31.867Z,21.70
2018-07-04T21:49:11.722Z,21.60
2018-07-04T21:51:51.260Z,21.60
2018-07-04T21:54:30.930Z,21.60
2018-07-04T21:57:10.620Z,21.60
2018-07-04T21:59:50.498Z,21.60
2018-07-04T22:02:30.161Z,21.50
2018-07-04T22:05:09.824Z,21.50
2018-07-04T22:07:49.436Z,21.50
2018-07-04T22:10:29.388Z,21.50
2018-07-04T22:13:09.082Z,21.50
2018-07-04T22:15:48.886Z,21.40
2018-07-04T22:18:28.577Z,21.40
2018-07-04T22:21:08.395Z,21.40
2018-07-04T22:23:48.142Z,21.40
2018-07-04T22:26:27.923Z,21.40
2018-07-04T22:29:07.687Z,21.30
2018-07-04T22:31:47.387Z,21.30
2018-07-04T22:34:27.195Z,21.30
2018-07-04T22:37:07.038Z,21.30
2018-07-04T22:39:46.624Z,21.30
2018-07-04T22:42:26.438Z,21.30
2018-07-04T22:45:06.303Z,21.20
2018-07-04T22:47:45.996Z,21.20
2018-07-04T22:50:25.706Z,21.20
2018-07-04T22:53:05.614Z,21.20
2018-07-04T22:55:45.344Z,21.20
2018-07-04T22:58:25.226Z,21.20
2018-07-04T23:01:04.925Z,21.20
2018-07-04T23:03:44.942Z,21.20
2018-07-04T23:06:24.715Z,21.10
2018-07-04T23:09:05.203Z,21.10
2018-07-04T23:11:45.203Z,21.10
2018-07-04T23:14:25.011Z,21.00
2018-07-04T23:17:04.770Z,20.90
2018-07-04T23:19:44.424Z,20.90
2018-07-04T23:22:24.006Z,20.80
2018-07-04T23:25:04.147Z,20.80
2018-07-04T23:27:43.896Z,20.80
2018-07-04T23:30:23.564Z,20.70
2018-07-04T23:33:03.167Z,20.60
2018-07-04T23:35:42.873Z,20.50
2018-07-04T23:38:22.656Z,20.50
2018-07-04T23:41:02.686Z,20.40
2018-07-04T23:43:42.366Z,20.40
2018-07-04T23:46:22.168Z,20.40
2018-07-04T23:49:01.875Z,20.30
2018-07-04T23:51:41.824Z,20.30
2018-07-04T23:54:21.712Z,20.30
2018-07-04T23:57:01.583Z,20.30
2018-07-04T23:59:41.535Z,20.20
